Time;durP1;ratioP1;P1;durP2;ratioP2;P2;SDS_P1;SDS_P2;PMS_P1;PMS_P2;Temp;Humidity;BMP_temperature;BMP_pressure;BME280_temperature;BME280_humidity;BME280_pressure;Samples;Min_cycle;Max_cycle;Signal;HPM_P1;HPM_P2
2022/04/28 00:00:43;;;;;;;0.37;0.37;;;6.60;99.90;;;;;;4983695;28;20208;-84
2022/04/28 00:03:11;;;;;;;0.30;0.30;;;6.50;99.90;;;;;;4981718;28;20190;-84
2022/04/28 00:05:37;;;;;;;0.30;0.30;;;6.60;99.90;;;;;;4988131;28;20507;-85
2022/04/28 00:08:04;;;;;;;0.40;0.40;;;6.70;99.90;;;;;;4983004;28;20448;-85
2022/04/28 00:10:29;;;;;;;0.30;0.30;;;6.70;99.90;;;;;;4986293;28;20436;-84
2022/04/28 00:12:56;;;;;;;0.30;0.30;;;6.60;99.90;;;;;;4982070;28;20587;-85
2022/04/28 00:15:22;;;;;;;0.30;0.30;;;6.30;99.90;;;;;;4985911;28;20190;-84
2022/04/28 00:17:48;;;;;;;0.30;0.30;;;6.50;99.90;;;;;;4983172;28;20458;-85
2022/04/28 00:20:13;;;;;;;0.30;0.30;;;6.50;99.90;;;;;;4986042;28;20213;-85
2022/04/28 00:22:39;;;;;;;0.30;0.30;;;6.40;99.90;;;;;;4981100;28;20248;-85
2022/04/28 00:25:06;;;;;;;0.30;0.30;;;6.60;99.90;;;;;;4982741;28;20323;-85
2022/04/28 00:27:33;;;;;;;0.30;0.30;;;6.40;99.90;;;;;;4985816;28;20192;-85
2022/04/28 00:29:59;;;;;;;0.30;0.30;;;6.50;99.90;;;;;;4989096;28;20436;-85
2022/04/28 00:32:24;;;;;;;0.30;0.30;;;6.60;99.90;;;;;;4989977;28;20938;-84
2022/04/28 00:34:50;;;;;;;0.30;0.30;;;6.30;99.90;;;;;;4988804;28;20443;-84
2022/04/28 00:37:15;;;;;;;0.40;0.40;;;6.40;99.90;;;;;;4979228;28;20259;-85
2022/04/28 00:39:41;;;;;;;0.30;0.30;;;6.40;99.90;;;;;;4987137;28;20216;-84
2022/04/28 00:42:11;;;;;;;0.30;0.30;;;6.20;99.90;;;;;;4987795;28;20199;-84
2022/04/28 00:44:37;;;;;;;0.40;0.40;;;6.20;99.90;;;;;;4982555;28;20703;-84
2022/04/28 00:47:03;;;;;;;0.30;0.30;;;6.40;99.90;;;;;;4987937;28;20524;-85
2022/04/28 00:52:13;;;;;;;0.33;0.33;;;6.20;99.90;;;;;;4983039;28;20460;-85
2022/04/28 00:54:39;;;;;;;0.30;0.30;;;6.30;99.90;;;;;;4984384;28;20444;-85
2022/04/28 00:57:04;;;;;;;0.30;0.30;;;6.40;99.90;;;;;;4980190;28;20182;-85
2022/04/28 00:59:30;;;;;;;0.40;0.40;;;6.30;99.90;;;;;;4982656;28;20564;-85
2022/04/28 01:01:56;;;;;;;0.30;0.30;;;6.30;99.90;;;;;;4983696;28;20182;-84
2022/04/28 01:04:21;;;;;;;0.40;0.40;;;6.20;99.90;;;;;;4981583;28;20233;-85
2022/04/28 01:06:47;;;;;;;0.30;0.30;;;6.20;99.90;;;;;;4984730;28;20225;-85
2022/04/28 01:09:14;;;;;;;0.40;0.40;;;6.00;99.90;;;;;;4982132;28;20711;-85
2022/04/28 01:11:41;;;;;;;0.30;0.30;;;5.90;99.90;;;;;;4983282;28;20194;-84
2022/04/28 01:14:06;;;;;;;0.30;0.30;;;6.00;99.90;;;;;;4981654;28;22179;-85
2022/04/28 01:16:32;;;;;;;0.30;0.30;;;6.00;99.90;;;;;;4980402;28;20467;-85
2022/04/28 01:18:58;;;;;;;0.40;0.40;;;6.10;99.90;;;;;;4982514;28;20216;-84
2022/04/28 01:21:24;;;;;;;0.30;0.30;;;6.00;99.90;;;;;;4979402;28;20193;-85
2022/04/28 01:23:51;;;;;;;0.40;0.40;;;6.20;99.90;;;;;;4969731;28;21022;-85
2022/04/28 01:26:16;;;;;;;0.30;0.30;;;5.90;99.90;;;;;;4986618;28;20491;-85
2022/04/28 01:28:42;;;;;;;0.40;0.40;;;5.60;99.90;;;;;;4982936;28;20460;-84
2022/04/28 01:31:07;;;;;;;0.30;0.30;;;5.30;99.90;;;;;;4982161;28;20212;-85
2022/04/28 01:33:33;;;;;;;0.40;0.40;;;5.20;99.90;;;;;;4971681;28;20193;-84
2022/04/28 01:35:59;;;;;;;0.33;0.33;;;5.30;99.90;;;;;;4987575;28;20692;-85
2022/04/28 01:38:25;;;;;;;0.30;0.30;;;5.30;99.90;;;;;;4978204;28;20181;-85
2022/04/28 01:40:50;;;;;;;0.40;0.40;;;5.10;99.90;;;;;;4983404;28;20456;-85
2022/04/28 01:43:16;;;;;;;0.40;0.40;;;5.00;99.90;;;;;;4985299;28;20193;-85
2022/04/28 01:45:42;;;;;;;0.40;0.40;;;4.90;99.90;;;;;;4982333;28;20221;-85
2022/04/28 01:48:08;;;;;;;0.40;0.40;;;4.80;99.90;;;;;;4986735;28;20452;-85
2022/04/28 01:50:34;;;;;;;0.40;0.40;;;4.70;99.90;;;;;;4985789;28;20311;-85
2022/04/28 01:55:43;;;;;;;0.30;0.30;;;4.80;99.90;;;;;;4979091;28;20224;-85
2022/04/28 01:58:09;;;;;;;0.40;0.40;;;4.80;99.90;;;;;;4970532;28;20444;-85
2022/04/28 02:00:35;;;;;;;0.40;0.40;;;4.70;99.90;;;;;;4975680;28;20185;-84
2022/04/28 02:03:00;;;;;;;0.33;0.33;;;4.70;99.90;;;;;;4980660;28;20181;-85
2022/04/28 02:05:26;;;;;;;0.40;0.40;;;4.70;99.90;;;;;;4986876;28;20300;-84
2022/04/28 02:07:51;;;;;;;0.40;0.40;;;4.60;99.90;;;;;;4983835;28;20282;-84
2022/04/28 02:10:17;;;;;;;0.40;0.40;;;4.60;99.90;;;;;;4982994;28;20193;-85
2022/04/28 02:12:43;;;;;;;0.40;0.40;;;4.60;99.90;;;;;;4979710;28;20193;-85
2022/04/28 02:15:09;;;;;;;0.40;0.40;;;4.80;99.90;;;;;;4971427;28;20195;-85
2022/04/28 02:17:37;;;;;;;0.40;0.40;;;4.80;99.90;;;;;;4986755;28;20216;-86
2022/04/28 02:20:11;;;;;;;0.30;0.30;;;4.70;99.90;;;;;;4983792;28;20449;-85
2022/04/28 02:22:36;;;;;;;0.40;0.40;;;4.40;99.90;;;;;;4983941;28;20527;-85
2022/04/28 02:25:05;;;;;;;0.40;0.40;;;4.40;99.90;;;;;;4977629;28;21031;-85
2022/04/28 02:27:31;;;;;;;0.50;0.50;;;4.30;99.90;;;;;;4978590;28;20189;-85
2022/04/28 02:29:56;;;;;;;0.50;0.50;;;4.40;99.90;;;;;;4989112;28;20459;-85
2022/04/28 02:32:22;;;;;;;0.40;0.40;;;4.30;99.90;;;;;;4985103;28;20200;-85
2022/04/28 02:34:48;;;;;;;0.40;0.40;;;4.20;99.90;;;;;;4983693;28;20200;-85
2022/04/28 02:37:16;;;;;;;0.50;0.50;;;4.20;99.90;;;;;;4985574;28;20265;-85
2022/04/28 02:39:41;;;;;;;0.40;0.40;;;4.20;99.90;;;;;;4981830;28;20193;-85
2022/04/28 02:42:07;;;;;;;0.40;0.40;;;4.20;99.90;;;;;;4981938;28;20514;-85
2022/04/28 02:44:33;;;;;;;0.47;0.47;;;4.30;99.90;;;;;;4975960;28;20202;-85
2022/04/28 02:46:59;;;;;;;0.40;0.40;;;4.20;99.90;;;;;;4976142;28;20484;-84
2022/04/28 02:49:24;;;;;;;0.40;0.40;;;4.40;99.90;;;;;;4984708;28;20192;-85
2022/04/28 02:51:50;;;;;;;0.40;0.40;;;4.30;99.90;;;;;;4985564;28;20586;-85
2022/04/28 02:54:15;;;;;;;0.50;0.50;;;4.40;99.90;;;;;;4985225;28;20204;-84
2022/04/28 02:56:41;;;;;;;0.50;0.50;;;4.40;99.90;;;;;;4974584;28;20240;-84
2022/04/28 02:59:07;;;;;;;0.50;0.50;;;4.30;99.90;;;;;;4977950;28;20197;-85
2022/04/28 03:01:32;;;;;;;0.40;0.40;;;4.30;99.90;;;;;;4981811;28;20227;-85
2022/04/28 03:03:58;;;;;;;0.50;0.50;;;4.40;99.90;;;;;;4980083;28;20192;-84
2022/04/28 03:11:53;;;;;;;0.50;0.50;;;4.70;99.90;;;;;;4979043;28;20575;-84
2022/04/28 03:14:19;;;;;;;0.50;0.50;;;4.70;99.90;;;;;;4976234;28;20998;-83
2022/04/28 03:16:45;;;;;;;0.40;0.40;;;4.70;99.90;;;;;;4984125;28;20940;-83
2022/04/28 03:19:11;;;;;;;0.40;0.40;;;4.70;99.90;;;;;;4984417;28;20450;-83
2022/04/28 03:21:39;;;;;;;0.40;0.40;;;4.70;99.90;;;;;;4986188;28;20236;-83
2022/04/28 03:24:05;;;;;;;0.40;0.40;;;4.80;99.90;;;;;;4986098;28;20177;-83
2022/04/28 03:26:31;;;;;;;0.40;0.40;;;4.80;99.90;;;;;;4979341;28;20490;-84
2022/04/28 03:28:57;;;;;;;0.40;0.40;;;5.00;99.90;;;;;;4980690;28;20189;-84
2022/04/28 03:31:23;;;;;;;0.40;0.40;;;5.10;99.90;;;;;;4978267;28;20189;-83
2022/04/28 03:33:48;;;;;;;0.40;0.40;;;5.00;99.90;;;;;;4985206;28;20966;-83
2022/04/28 03:38:58;;;;;;;0.40;0.40;;;4.70;99.90;;;;;;4982586;28;20196;-84
2022/04/28 03:41:24;;;;;;;0.40;0.40;;;4.50;99.90;;;;;;4976390;28;20514;-83
2022/04/28 03:43:49;;;;;;;0.40;0.40;;;4.30;99.90;;;;;;4982556;28;20211;-83
2022/04/28 03:46:15;;;;;;;0.40;0.40;;;4.30;99.90;;;;;;4976955;28;20224;-83
2022/04/28 03:48:42;;;;;;;0.50;0.50;;;4.40;99.90;;;;;;4982663;28;20667;-84
2022/04/28 03:51:07;;;;;;;0.40;0.40;;;4.50;99.90;;;;;;4985670;28;20488;-83
2022/04/28 03:53:33;;;;;;;0.40;0.40;;;4.70;99.90;;;;;;4977822;28;20463;-83
2022/04/28 03:55:59;;;;;;;0.40;0.40;;;4.70;99.90;;;;;;4977308;28;20199;-83
2022/04/28 03:58:28;;;;;;;0.40;0.40;;;4.90;99.90;;;;;;4975180;28;20228;-83
2022/04/28 04:00:53;;;;;;;0.40;0.40;;;4.80;99.90;;;;;;4981468;28;20924;-84
2022/04/28 04:03:20;;;;;;;0.40;0.40;;;5.00;99.90;;;;;;4978385;28;20459;-84
2022/04/28 04:05:49;;;;;;;0.30;0.30;;;4.90;99.90;;;;;;4984133;28;20256;-84
2022/04/28 04:08:15;;;;;;;0.50;0.50;;;4.80;99.90;;;;;;4979219;28;20451;-84
2022/04/28 04:10:41;;;;;;;0.30;0.30;;;4.70;99.90;;;;;;4984793;28;20451;-83
2022/04/28 04:13:07;;;;;;;0.40;0.40;;;4.70;99.90;;;;;;4978698;28;20462;-83
2022/04/28 04:15:33;;;;;;;0.40;0.40;;;4.90;99.90;;;;;;4983178;28;20476;-82
2022/04/28 04:17:59;;;;;;;0.40;0.40;;;4.90;99.90;;;;;;4981462;28;20523;-83
2022/04/28 04:20:27;;;;;;;0.40;0.40;;;5.00;99.90;;;;;;4985586;28;20177;-83
2022/04/28 04:22:53;;;;;;;0.40;0.40;;;5.10;99.90;;;;;;4982349;28;20459;-83
2022/04/28 04:25:18;;;;;;;0.40;0.40;;;5.00;99.90;;;;;;4984807;28;20460;-83
2022/04/28 04:27:44;;;;;;;0.50;0.50;;;5.00;99.90;;;;;;4989725;28;20270;-84
2022/04/28 04:32:54;;;;;;;0.40;0.40;;;5.00;99.90;;;;;;4979194;28;20250;-83
2022/04/28 04:35:21;;;;;;;0.40;0.40;;;5.10;99.90;;;;;;4979298;28;20440;-83
2022/04/28 04:37:47;;;;;;;0.40;0.40;;;5.30;99.90;;;;;;4987852;28;20185;-83
2022/04/28 04:40:13;;;;;;;0.37;0.37;;;5.20;99.90;;;;;;4981429;28;20444;-84
2022/04/28 04:42:38;;;;;;;0.40;0.40;;;5.10;99.90;;;;;;4988342;28;20261;-83
2022/04/28 04:45:06;;;;;;;0.30;0.30;;;5.20;99.90;;;;;;4978524;28;20929;-83
2022/04/28 04:47:31;;;;;;;0.40;0.40;;;5.30;99.90;;;;;;4975689;28;20266;-84
2022/04/28 04:49:57;;;;;;;0.40;0.40;;;5.40;99.90;;;;;;4978024;28;20514;-84
2022/04/28 04:52:22;;;;;;;0.40;0.40;;;5.40;99.90;;;;;;4982229;28;21098;-83
2022/04/28 04:54:48;;;;;;;0.40;0.40;;;5.40;99.90;;;;;;4980158;28;20185;-84
2022/04/28 04:57:13;;;;;;;0.30;0.30;;;5.50;99.90;;;;;;4980915;28;20186;-83
2022/04/28 04:59:39;;;;;;;0.40;0.40;;;5.50;99.90;;;;;;4980357;28;20189;-83
2022/04/28 05:02:04;;;;;;;0.40;0.40;;;5.60;99.90;;;;;;4977384;28;20246;-84
2022/04/28 05:04:30;;;;;;;0.30;0.30;;;5.60;99.90;;;;;;4983724;28;20198;-83
2022/04/28 05:06:55;;;;;;;0.30;0.30;;;5.70;99.90;;;;;;4980299;28;20220;-83
2022/04/28 05:09:21;;;;;;;0.30;0.30;;;5.80;99.90;;;;;;4983387;28;20690;-83
2022/04/28 05:11:46;;;;;;;0.30;0.30;;;5.90;99.90;;;;;;4978767;28;20213;-83
2022/04/28 05:14:12;;;;;;;0.30;0.30;;;6.00;99.90;;;;;;4985143;28;20200;-84
2022/04/28 05:16:37;;;;;;;0.40;0.40;;;6.10;99.90;;;;;;4985894;28;20185;-84
2022/04/28 05:19:03;;;;;;;0.30;0.30;;;6.30;99.90;;;;;;4986447;28;20181;-82
2022/04/28 05:21:28;;;;;;;0.30;0.30;;;6.40;99.90;;;;;;4986839;28;20177;-82
2022/04/28 05:23:54;;;;;;;0.40;0.40;;;6.50;99.90;;;;;;4989072;28;20333;-83
2022/04/28 05:26:20;;;;;;;0.30;0.30;;;6.60;99.90;;;;;;4986090;28;20367;-83
2022/04/28 05:28:45;;;;;;;0.30;0.30;;;6.60;99.90;;;;;;4990335;28;20188;-82
2022/04/28 05:31:11;;;;;;;0.30;0.30;;;6.70;99.90;;;;;;4988454;28;20196;-83
2022/04/28 05:33:38;;;;;;;0.33;0.33;;;6.80;99.90;;;;;;4975861;28;20204;-84
2022/04/28 05:36:06;;;;;;;0.30;0.30;;;6.90;99.90;;;;;;4985832;28;20450;-84
2022/04/28 05:38:33;;;;;;;0.40;0.40;;;7.00;99.90;;;;;;4985339;28;20444;-84
2022/04/28 05:40:58;;;;;;;0.30;0.30;;;7.00;99.90;;;;;;4985482;28;20551;-84
2022/04/28 05:46:08;;;;;;;0.30;0.30;;;7.10;99.90;;;;;;4984492;28;20232;-84
2022/04/28 05:48:34;;;;;;;0.30;0.30;;;7.20;99.90;;;;;;4988081;28;20420;-84
2022/04/28 05:51:00;;;;;;;0.30;0.30;;;7.30;99.90;;;;;;4987907;28;20231;-82
2022/04/28 05:53:25;;;;;;;0.40;0.40;;;7.40;99.90;;;;;;4983335;28;20494;-84
2022/04/28 05:55:51;;;;;;;0.40;0.40;;;7.50;99.90;;;;;;4988461;28;20193;-84
2022/04/28 05:58:16;;;;;;;0.20;0.20;;;7.50;99.90;;;;;;4986925;28;20955;-84
2022/04/28 06:00:43;;;;;;;0.30;0.30;;;7.70;99.90;;;;;;4996888;28;20186;-84
2022/04/28 06:03:08;;;;;;;0.30;0.30;;;7.60;99.90;;;;;;4979817;28;20530;-84
2022/04/28 06:05:34;;;;;;;0.30;0.30;;;7.70;99.90;;;;;;4981215;28;20580;-85
2022/04/28 06:07:59;;;;;;;0.30;0.30;;;7.80;99.90;;;;;;4976852;28;20220;-84
2022/04/28 06:10:25;;;;;;;0.30;0.30;;;7.90;99.90;;;;;;4983697;28;20193;-84
2022/04/28 06:12:50;;;;;;;0.30;0.30;;;8.00;99.90;;;;;;4983880;28;20287;-84
2022/04/28 06:15:16;;;;;;;0.30;0.30;;;8.00;99.90;;;;;;4987353;28;20177;-84
2022/04/28 06:17:41;;;;;;;0.30;0.30;;;8.10;99.90;;;;;;4989156;28;20196;-84
2022/04/28 06:20:07;;;;;;;0.30;0.30;;;8.20;99.90;;;;;;4981443;28;20212;-83
2022/04/28 06:22:33;;;;;;;0.30;0.30;;;8.20;99.90;;;;;;4987149;28;20188;-85
2022/04/28 06:24:59;;;;;;;0.30;0.30;;;8.30;99.90;;;;;;4986363;28;20501;-85
2022/04/28 06:27:28;;;;;;;0.20;0.20;;;8.30;99.90;;;;;;4981369;28;20201;-84
2022/04/28 06:29:53;;;;;;;0.30;0.30;;;8.50;99.90;;;;;;4985852;28;20448;-84
2022/04/28 06:32:19;;;;;;;0.30;0.30;;;8.40;99.90;;;;;;4984330;28;20496;-84
2022/04/28 06:34:45;;;;;;;0.30;0.30;;;8.30;99.90;;;;;;4978444;28;20185;-86
2022/04/28 06:37:14;;;;;;;0.30;0.30;;;8.60;99.90;;;;;;4980086;28;20448;-86
2022/04/28 06:39:40;;;;;;;0.30;0.30;;;8.70;99.90;;;;;;4975878;28;21276;-86
2022/04/28 06:42:06;;;;;;;0.30;0.30;;;8.70;99.90;;;;;;4987142;28;20458;-85
2022/04/28 06:44:31;;;;;;;0.20;0.20;;;8.80;99.90;;;;;;4986385;28;20181;-85
2022/04/28 06:46:57;;;;;;;0.30;0.30;;;8.70;99.90;;;;;;4986369;28;20547;-84
2022/04/28 06:49:23;;;;;;;0.30;0.30;;;8.90;99.90;;;;;;4985491;28;20193;-83
2022/04/28 06:51:48;;;;;;;0.20;0.20;;;8.90;99.90;;;;;;4987192;28;20684;-84
2022/04/28 06:54:13;;;;;;;0.20;0.20;;;9.30;99.90;;;;;;4982588;28;20272;-83
2022/04/28 06:56:39;;;;;;;0.20;0.20;;;9.60;99.90;;;;;;4983555;28;20202;-83
2022/04/28 06:59:05;;;;;;;0.20;0.20;;;9.60;99.90;;;;;;4986525;28;20185;-84
2022/04/28 07:01:31;;;;;;;0.20;0.20;;;9.80;99.90;;;;;;4982197;28;20193;-84
2022/04/28 07:03:57;;;;;;;0.20;0.20;;;10.10;99.90;;;;;;4978240;28;20232;-83
2022/04/28 07:06:22;;;;;;;0.20;0.20;;;10.20;99.90;;;;;;4979421;28;20495;-84
2022/04/28 07:08:48;;;;;;;0.20;0.20;;;10.10;99.90;;;;;;4980673;28;20213;-83
2022/04/28 07:11:13;;;;;;;0.20;0.20;;;9.70;99.90;;;;;;4985192;28;20177;-83
2022/04/28 07:13:39;;;;;;;0.20;0.20;;;10.00;99.90;;;;;;4983827;28;20185;-85
2022/04/28 07:16:05;;;;;;;0.20;0.20;;;10.00;99.90;;;;;;4975318;28;20194;-82
2022/04/28 07:18:31;;;;;;;0.20;0.20;;;10.00;99.90;;;;;;4981364;28;20653;-85
2022/04/28 07:21:00;;;;;;;0.20;0.20;;;10.10;99.90;;;;;;4981244;28;21174;-85
2022/04/28 07:23:29;;;;;;;0.20;0.20;;;10.20;99.90;;;;;;4984763;28;20444;-85
2022/04/28 07:25:55;;;;;;;0.20;0.20;;;10.50;99.90;;;;;;4987183;28;20544;-85
2022/04/28 07:28:20;;;;;;;0.20;0.20;;;10.50;99.90;;;;;;4978240;28;20432;-84
2022/04/28 07:30:46;;;;;;;0.10;0.10;;;10.90;99.90;;;;;;4988662;28;20553;-84
2022/04/28 07:33:11;;;;;;;0.20;0.20;;;10.70;99.90;;;;;;4988201;28;20181;-83
2022/04/28 07:35:37;;;;;;;0.20;0.20;;;10.60;99.90;;;;;;4989000;28;20182;-85
2022/04/28 07:38:04;;;;;;;0.20;0.20;;;10.80;99.90;;;;;;4990241;28;20261;-85
2022/04/28 07:40:30;;;;;;;0.20;0.20;;;11.10;99.90;;;;;;4990593;28;20284;-84
2022/04/28 07:42:56;;;;;;;0.20;0.20;;;11.40;99.90;;;;;;4990197;28;20439;-84
2022/04/28 07:45:22;;;;;;;0.20;0.20;;;11.60;99.90;;;;;;4984965;28;21430;-84
2022/04/28 07:47:49;;;;;;;0.10;0.10;;;11.10;99.90;;;;;;4984705;28;20462;-83
2022/04/28 07:50:15;;;;;;;0.20;0.20;;;11.10;99.90;;;;;;4984537;28;20567;-84
2022/04/28 07:52:41;;;;;;;0.20;0.20;;;11.20;99.90;;;;;;4989525;28;20527;-83
2022/04/28 07:55:07;;;;;;;0.20;0.20;;;11.20;99.90;;;;;;4984332;28;20424;-84
2022/04/28 07:57:33;;;;;;;0.20;0.20;;;11.40;99.90;;;;;;4986030;28;20212;-85
2022/04/28 07:59:59;;;;;;;0.17;0.17;;;11.80;99.90;;;;;;4984467;28;20440;-84
2022/04/28 08:02:24;;;;;;;0.20;0.20;;;11.70;99.90;;;;;;4988871;28;20448;-84
2022/04/28 08:04:50;;;;;;;0.13;0.13;;;11.70;99.90;;;;;;4978055;28;20189;-84
2022/04/28 08:07:15;;;;;;;0.20;0.20;;;11.90;99.90;;;;;;4972755;28;20214;-84
2022/04/28 08:09:41;;;;;;;0.20;0.20;;;11.90;99.90;;;;;;4977020;28;20223;-85
2022/04/28 08:12:07;;;;;;;0.20;0.20;;;11.80;99.90;;;;;;4976029;28;20224;-84
2022/04/28 08:14:33;;;;;;;0.20;0.20;;;11.90;99.90;;;;;;4986564;28;20198;-85
2022/04/28 08:16:59;;;;;;;0.17;0.17;;;11.80;99.90;;;;;;4988893;28;20468;-85
2022/04/28 08:19:25;;;;;;;0.10;0.10;;;12.00;99.90;;;;;;4989010;28;20194;-85
2022/04/28 08:21:52;;;;;;;0.20;0.20;;;12.30;99.90;;;;;;4991329;28;20610;-86
2022/04/28 08:24:17;;;;;;;0.10;0.10;;;12.30;99.90;;;;;;4990282;28;20250;-86
2022/04/28 08:26:43;;;;;;;0.10;0.10;;;12.40;99.90;;;;;;4988857;28;20491;-85
2022/04/28 08:29:09;;;;;;;0.10;0.10;;;12.90;99.90;;;;;;4990535;28;20323;-86
2022/04/28 08:31:38;;;;;;;0.10;0.10;;;12.90;99.90;;;;;;4982174;28;20219;-85
2022/04/28 08:34:03;;;;;;;0.10;0.10;;;12.70;99.90;;;;;;4990861;28;20932;-86
2022/04/28 08:36:29;;;;;;;0.10;0.10;;;12.90;99.90;;;;;;4988817;28;20478;-85
2022/04/28 08:38:54;;;;;;;0.20;0.20;;;13.00;99.90;;;;;;4987562;28;20261;-85
2022/04/28 08:41:29;;;;;;;0.10;0.10;;;13.10;99.90;;;;;;4987978;28;20185;-85
2022/04/28 08:43:59;;;;;;;0.10;0.10;;;13.30;99.90;;;;;;4987958;28;21009;-85
2022/04/28 08:49:14;;;;;;;0.10;0.10;;;13.60;99.90;;;;;;4981099;28;20444;-84
2022/04/28 08:51:41;;;;;;;0.10;0.10;;;13.40;99.90;;;;;;4989816;28;20491;-85
2022/04/28 08:54:09;;;;;;;0.10;0.10;;;14.00;99.90;;;;;;4990324;28;20529;-84
2022/04/28 08:56:35;;;;;;;0.10;0.10;;;13.40;99.90;;;;;;4986192;28;20449;-84
2022/04/28 08:59:01;;;;;;;0.10;0.10;;;13.40;99.90;;;;;;4980030;28;20894;-87
2022/04/28 09:01:27;;;;;;;0.10;0.10;;;13.70;99.90;;;;;;4987629;28;20197;-86
2022/04/28 09:03:57;;;;;;;0.10;0.10;;;14.00;99.90;;;;;;4989663;28;20684;-86
2022/04/28 09:06:29;;;;;;;0.10;0.10;;;14.20;99.90;;;;;;4981449;28;20481;-85
2022/04/28 09:08:56;;;;;;;0.10;0.10;;;14.60;99.90;;;;;;4986601;28;20801;-86
2022/04/28 09:11:24;;;;;;;0.10;0.10;;;14.40;99.90;;;;;;4989525;28;20451;-85
2022/04/28 09:14:14;;;;;;;0.10;0.10;;;14.50;99.90;;;;;;4985005;28;20463;-86
2022/04/28 09:16:48;;;;;;;0.10;0.10;;;14.80;99.90;;;;;;4986020;28;20463;-89
2022/04/28 09:19:24;;;;;;;0.10;0.10;;;15.50;99.90;;;;;;4989383;28;20452;-83
2022/04/28 09:21:55;;;;;;;0.10;0.10;;;15.20;99.90;;;;;;4987039;28;20910;-83
2022/04/28 09:24:23;;;;;;;0.10;0.10;;;15.90;99.90;;;;;;4983451;28;20450;-85
2022/04/28 09:26:50;;;;;;;0.10;0.10;;;16.40;99.90;;;;;;4986343;28;20484;-85
2022/04/28 09:29:17;;;;;;;0.10;0.10;;;16.10;99.90;;;;;;4989762;28;20424;-85
2022/04/28 09:31:45;;;;;;;0.10;0.10;;;16.20;99.90;;;;;;4985215;28;20514;-85
2022/04/28 09:34:12;;;;;;;0.10;0.10;;;16.50;99.90;;;;;;4986476;28;20815;-85
2022/04/28 09:36:39;;;;;;;0.10;0.10;;;16.90;99.90;;;;;;4990336;28;21236;-85
2022/04/28 09:39:06;;;;;;;0.10;0.10;;;16.60;99.90;;;;;;4988787;28;20996;-83
2022/04/28 09:44:20;;;;;;;0.10;0.10;;;15.70;99.90;;;;;;4977154;28;20460;-83
2022/04/28 09:46:46;;;;;;;0.10;0.10;;;15.60;99.90;;;;;;4986598;28;20487;-84
2022/04/28 09:49:16;;;;;;;0.10;0.10;;;16.00;99.90;;;;;;4985911;28;20460;-83
2022/04/28 09:51:42;;;;;;;0.10;0.10;;;15.80;99.90;;;;;;4987836;28;20491;-84
2022/04/28 09:54:11;;;;;;;0.10;0.10;;;16.00;99.90;;;;;;4987194;28;20456;-83
2022/04/28 09:56:38;;;;;;;0.10;0.10;;;16.50;99.90;;;;;;4979491;28;20255;-83
2022/04/28 09:59:05;;;;;;;0.00;0.00;;;17.00;99.90;;;;;;4988671;28;20456;-86
2022/04/28 10:01:34;;;;;;;0.10;0.10;;;17.50;99.90;;;;;;4984353;28;20432;-86
2022/04/28 10:04:00;;;;;;;0.10;0.00;;;17.80;99.90;;;;;;4985279;28;21070;-86
2022/04/28 10:06:27;;;;;;;0.10;0.10;;;17.00;99.90;;;;;;4983996;28;20571;-86
2022/04/28 10:08:53;;;;;;;0.10;0.10;;;17.80;99.90;;;;;;4984196;28;20936;-86
2022/04/28 10:11:22;;;;;;;0.10;0.10;;;18.30;99.90;;;;;;4986791;28;20467;-86
2022/04/28 10:13:50;;;;;;;0.10;0.10;;;18.00;99.90;;;;;;4991665;28;20189;-86
2022/04/28 10:16:18;;;;;;;0.10;0.03;;;17.40;99.90;;;;;;4982996;28;20452;-86
2022/04/28 10:19:16;;;;;;;0.00;0.00;;;18.00;99.90;;;;;;4973408;28;20963;-84
2022/04/28 10:21:50;;;;;;;0.03;0.03;;;17.70;99.90;;;;;;4982725;28;20468;-84
2022/04/28 10:32:56;;;;;;;0.00;0.00;;;18.50;99.90;;;;;;4984914;28;20510;-85
2022/04/28 10:35:35;;;;;;;0.10;0.00;;;19.10;99.90;;;;;;4987889;28;20441;-85
2022/04/28 10:38:31;;;;;;;0.10;0.00;;;18.50;99.90;;;;;;4980008;28;20463;-84
2022/04/28 10:41:04;;;;;;;0.10;0.00;;;18.20;99.90;;;;;;4972106;28;20444;-87
2022/04/28 10:43:32;;;;;;;0.10;0.00;;;19.00;99.90;;;;;;4976915;28;20452;-86
2022/04/28 10:46:01;;;;;;;0.10;0.10;;;18.40;99.90;;;;;;4989149;28;20484;-86
2022/04/28 10:48:30;;;;;;;0.10;0.10;;;18.00;99.90;;;;;;4986574;28;20556;-86
2022/04/28 10:51:06;;;;;;;0.10;0.10;;;18.40;99.90;;;;;;4983955;28;20488;-85
2022/04/28 10:53:32;;;;;;;0.10;0.10;;;17.60;99.90;;;;;;4986354;28;20546;-86
2022/04/28 10:56:12;;;;;;;0.10;0.00;;;19.00;99.90;;;;;;4994502;28;20452;-85
2022/04/28 10:58:38;;;;;;;0.10;0.00;;;19.90;99.90;;;;;;4978678;28;20530;-85
2022/04/28 11:01:04;;;;;;;0.10;0.10;;;20.50;99.90;;;;;;4979024;28;20484;-85
2022/04/28 11:03:48;;;;;;;0.10;0.00;;;20.80;99.90;;;;;;4986504;28;21145;-87
2022/04/28 11:06:17;;;;;;;0.10;0.10;;;21.00;99.90;;;;;;4993216;28;20231;-87
2022/04/28 11:08:46;;;;;;;0.10;0.00;;;19.20;99.50;;;;;;4987960;28;20502;-85
2022/04/28 11:11:13;;;;;;;0.10;0.00;;;17.10;99.90;;;;;;4990188;28;20476;-86
2022/04/28 11:13:43;;;;;;;0.10;0.10;;;16.70;99.90;;;;;;4987929;28;20448;-84
2022/04/28 11:16:10;;;;;;;0.10;0.00;;;16.00;99.90;;;;;;4989695;28;20902;-82
2022/04/28 11:18:36;;;;;;;0.10;0.00;;;16.70;99.90;;;;;;4987769;28;20955;-85
2022/04/28 11:21:03;;;;;;;0.10;0.00;;;17.20;99.90;;;;;;4993439;28;20474;-86
2022/04/28 11:23:37;;;;;;;0.10;0.00;;;18.80;99.90;;;;;;4985902;28;20454;-84
2022/04/28 11:26:03;;;;;;;0.10;0.00;;;18.90;99.90;;;;;;4983424;28;20476;-86
2022/04/28 11:28:31;;;;;;;0.00;0.00;;;20.10;99.90;;;;;;4985876;28;20514;-88
2022/04/28 11:30:57;;;;;;;0.00;0.00;;;20.70;99.90;;;;;;4978604;28;20440;-85
2022/04/28 11:33:23;;;;;;;0.10;0.00;;;19.90;99.60;;;;;;4991618;28;20507;-89
2022/04/28 11:35:49;;;;;;;0.10;0.00;;;20.20;98.80;;;;;;4989810;28;20436;-86
2022/04/28 11:38:22;;;;;;;0.10;0.00;;;20.40;96.40;;;;;;4983152;28;20198;-85
2022/04/28 11:41:03;;;;;;;0.10;0.00;;;20.10;96.80;;;;;;4990596;28;20189;-86
2022/04/28 11:43:34;;;;;;;0.00;0.00;;;19.60;97.30;;;;;;4982097;28;20502;-85
2022/04/28 11:46:00;;;;;;;0.00;0.00;;;21.40;96.30;;;;;;4989198;28;20512;-87
2022/04/28 11:48:30;;;;;;;0.00;0.00;;;22.00;95.10;;;;;;4979496;28;20452;-86
2022/04/28 11:51:04;;;;;;;0.00;0.00;;;21.90;94.00;;;;;;4987268;28;20479;-87
2022/04/28 11:53:40;;;;;;;0.00;0.00;;;21.40;94.70;;;;;;4981788;28;20956;-88
2022/04/28 11:56:20;;;;;;;0.00;0.00;;;22.10;92.00;;;;;;4985829;28;20447;-86
2022/04/28 11:58:48;;;;;;;0.00;0.00;;;22.90;90.90;;;;;;4976581;28;20452;-87
2022/04/28 12:01:14;;;;;;;0.00;0.00;;;21.30;91.50;;;;;;4985061;28;20479;-87
2022/04/28 12:03:47;;;;;;;0.00;0.00;;;22.10;91.90;;;;;;4998487;28;20451;-87
2022/04/28 12:06:15;;;;;;;0.00;0.00;;;21.80;90.00;;;;;;4986834;28;20484;-87
2022/04/28 12:08:54;;;;;;;0.00;0.00;;;20.90;90.70;;;;;;4984166;28;20444;-85
2022/04/28 12:14:28;;;;;;;0.00;0.00;;;21.50;90.60;;;;;;4988433;28;20511;-86
2022/04/28 12:19:53;;;;;;;0.00;0.00;;;21.70;85.30;;;;;;4980938;28;20599;-85
2022/04/28 12:22:45;;;;;;;0.00;0.00;;;21.60;83.40;;;;;;4984938;28;20885;-85
2022/04/28 12:25:16;;;;;;;0.00;0.00;;;22.50;80.50;;;;;;4983771;28;20448;-84
2022/04/28 12:27:52;;;;;;;0.00;0.00;;;22.50;73.60;;;;;;4984656;28;20883;-86
2022/04/28 12:30:18;;;;;;;0.00;0.00;;;20.90;62.60;;;;;;4983045;28;20939;-87
2022/04/28 12:32:52;;;;;;;0.00;0.00;;;20.90;60.00;;;;;;4984353;28;21027;-87
2022/04/28 12:35:30;;;;;;;0.00;0.00;;;21.10;66.20;;;;;;4991821;28;20492;-87
2022/04/28 12:38:06;;;;;;;0.00;0.00;;;20.70;65.50;;;;;;4984158;28;20451;-88
2022/04/28 12:40:42;;;;;;;0.00;0.00;;;21.30;63.20;;;;;;4984502;28;20806;-88
2022/04/28 12:43:13;;;;;;;0.00;0.00;;;20.70;62.30;;;;;;4985572;28;20447;-86
2022/04/28 12:45:50;;;;;;;0.00;0.00;;;21.00;65.90;;;;;;4987539;28;20551;-87
2022/04/28 12:48:31;;;;;;;0.00;0.00;;;21.30;66.20;;;;;;4980667;28;20505;-86
2022/04/28 12:51:17;;;;;;;0.00;0.00;;;22.40;63.60;;;;;;4973347;28;20532;-88
2022/04/28 12:53:46;;;;;;;0.00;0.00;;;22.30;62.60;;;;;;4982721;28;20448;-87
2022/04/28 12:56:13;;;;;;;0.00;0.00;;;22.00;62.80;;;;;;4981728;28;20475;-89
2022/04/28 12:58:55;;;;;;;0.00;0.00;;;22.50;60.60;;;;;;4977846;28;20943;-88
2022/04/28 13:01:21;;;;;;;0.00;0.00;;;21.80;59.50;;;;;;4985102;28;20443;-86
2022/04/28 13:03:54;;;;;;;0.00;0.00;;;22.50;64.00;;;;;;4984287;28;20899;-87
2022/04/28 13:06:20;;;;;;;0.00;0.00;;;22.80;59.50;;;;;;4987569;28;20205;-89
2022/04/28 13:08:46;;;;;;;0.00;0.00;;;21.90;59.80;;;;;;4978311;28;20449;-87
2022/04/28 13:11:12;;;;;;;0.00;0.00;;;22.50;62.30;;;;;;4972800;28;20659;-87
2022/04/28 13:13:38;;;;;;;0.00;0.00;;;23.60;62.60;;;;;;4972380;28;20185;-87
2022/04/28 13:16:04;;;;;;;0.00;0.00;;;22.90;59.30;;;;;;4986219;28;20968;-88
2022/04/28 13:18:29;;;;;;;0.00;0.00;;;22.40;56.50;;;;;;4991267;28;20220;-87
2022/04/28 13:20:56;;;;;;;0.00;0.00;;;21.70;58.20;;;;;;4989037;28;20447;-88
2022/04/28 13:23:21;;;;;;;0.00;0.00;;;21.50;60.80;;;;;;4989868;28;20595;-87
2022/04/28 13:25:48;;;;;;;0.00;0.00;;;21.50;61.60;;;;;;4980580;28;20845;-87
2022/04/28 13:28:14;;;;;;;0.00;0.00;;;22.00;61.50;;;;;;4971793;28;20558;-88
2022/04/28 13:30:41;;;;;;;0.00;0.00;;;22.10;59.70;;;;;;4989781;28;20452;-86
2022/04/28 13:33:06;;;;;;;0.00;0.00;;;22.20;55.50;;;;;;4988009;28;20833;-87